Time;durP1;ratioP1;P1;durP2;ratioP2;P2;SDS_P1;SDS_P2;PMS_P1;PMS_P2;Temp;Humidity;BMP_temperature;BMP_pressure;BME280_temperature;BME280_humidity;BME280_pressure;Samples;Min_cycle;Max_cycle;Signal;HPM_P1;HPM_P2
2022/11/09 00:01:27;;;;;;;0.10;0.10;;;;;;;10.66;100.00;95921.91;4915988;29;20071;-75
2022/11/09 00:04:13;;;;;;;0.10;0.10;;;;;;;10.66;100.00;95913.88;4912946;29;20047;-76
2022/11/09 00:07:00;;;;;;;0.10;0.10;;;;;;;10.67;100.00;95904.78;4913796;29;20683;-76
2022/11/09 00:09:46;;;;;;;0.10;0.10;;;;;;;10.71;100.00;95916.56;4914160;29;20436;-76
2022/11/09 00:12:32;;;;;;;0.10;0.10;;;;;;;10.75;100.00;95920.31;4915231;29;20051;-76
2022/11/09 00:15:17;;;;;;;0.10;0.10;;;;;;;10.73;100.00;95927.78;4913067;29;20079;-76
2022/11/09 00:18:03;;;;;;;0.20;0.20;;;;;;;10.75;100.00;95931.03;4912678;29;20083;-75
2022/11/09 00:20:49;;;;;;;0.10;0.10;;;;;;;10.73;100.00;95935.00;4914699;29;20142;-76
2022/11/09 00:23:35;;;;;;;0.10;0.10;;;;;;;10.71;100.00;95929.13;4913775;29;20044;-76
2022/11/09 00:26:21;;;;;;;0.20;0.20;;;;;;;10.74;100.00;95928.59;4915300;29;20347;-76
2022/11/09 00:29:08;;;;;;;0.10;0.10;;;;;;;10.71;100.00;95929.13;4913101;29;20035;-76
2022/11/09 00:31:53;;;;;;;0.10;0.10;;;;;;;10.64;100.00;95915.19;4912255;29;20523;-75
2022/11/09 00:34:39;;;;;;;0.10;0.10;;;;;;;10.60;100.00;95926.41;4913333;29;20077;-76
2022/11/09 00:37:27;;;;;;;0.10;0.10;;;;;;;10.58;100.00;95923.22;4901949;29;20063;-76
2022/11/09 00:40:14;;;;;;;0.10;0.10;;;;;;;10.59;100.00;95924.81;4913954;29;20055;-75
2022/11/09 00:42:59;;;;;;;0.10;0.10;;;;;;;10.50;100.00;95917.53;4911001;29;20059;-76
2022/11/09 00:45:46;;;;;;;0.10;0.10;;;;;;;10.45;100.00;95917.53;4913508;29;20051;-76
2022/11/09 00:48:33;;;;;;;0.10;0.10;;;;;;;10.43;100.00;95909.75;4895562;29;20052;-76
2022/11/09 00:51:20;;;;;;;0.10;0.10;;;;;;;10.40;100.00;95912.13;4913562;29;20047;-75
2022/11/09 00:54:07;;;;;;;0.10;0.10;;;;;;;10.41;100.00;95909.19;4923866;28;20056;-76
2022/11/09 00:56:53;;;;;;;0.17;0.17;;;;;;;10.40;100.00;95912.13;4913556;29;20320;-77
2022/11/09 00:59:39;;;;;;;0.10;0.10;;;;;;;10.41;100.00;95911.06;4914082;29;20043;-76
2022/11/09 01:02:25;;;;;;;0.10;0.10;;;;;;;10.38;100.00;95916.94;4912031;29;20047;-76
2022/11/09 01:05:11;;;;;;;0.20;0.20;;;;;;;10.39;100.00;95918.56;4913670;29;20048;-75
2022/11/09 01:07:56;;;;;;;0.10;0.10;;;;;;;10.39;100.00;95918.56;4911880;29;20130;-76
2022/11/09 01:10:45;;;;;;;0.10;0.10;;;;;;;10.37;100.00;95907.31;4913165;29;20048;-76
2022/11/09 01:13:31;;;;;;;0.10;0.10;;;;;;;10.30;100.00;95913.69;4912576;29;20435;-76
2022/11/09 01:16:20;;;;;;;0.13;0.13;;;;;;;10.25;100.00;95916.34;4924988;28;20051;-76
2022/11/09 01:19:06;;;;;;;0.10;0.10;;;;;;;10.21;100.00;95922.44;4916027;29;20117;-76
2022/11/09 01:21:52;;;;;;;0.10;0.10;;;;;;;10.15;100.00;95934.97;4928723;28;20052;-76
2022/11/09 01:24:37;;;;;;;0.20;0.20;;;;;;;10.09;100.00;95922.63;4916832;29;20191;-75
2022/11/09 01:27:23;;;;;;;0.10;0.10;;;;;;;10.11;100.00;95933.88;4930722;28;20107;-76
2022/11/09 01:30:10;;;;;;;0.13;0.13;;;;;;;10.12;100.00;95934.69;4902233;29;20043;-76
2022/11/09 01:32:56;;;;;;;0.10;0.10;;;;;;;10.14;100.00;95938.72;4915159;29;20050;-76
2022/11/09 01:35:41;;;;;;;0.10;0.10;;;;;;;10.19;100.00;95940.59;4918450;29;20044;-77
2022/11/09 01:38:27;;;;;;;0.10;0.10;;;;;;;10.25;100.00;95926.22;4917430;29;20047;-75
2022/11/09 01:41:19;;;;;;;0.25;0.22;;;;;;;10.26;100.00;95928.63;4915554;29;20110;-76
2022/11/09 01:44:05;;;;;;;;;;;;;;;10.31;100.00;95931.34;4917136;29;20392;-76
2022/11/09 01:46:55;;;;;;;0.10;0.10;;;;;;;10.30;100.00;95932.41;4916112;29;19919;-75
2022/11/09 01:49:45;;;;;;;0.10;0.10;;;;;;;10.24;100.00;95928.09;4887528;29;20055;-77
2022/11/09 01:52:36;;;;;;;0.10;0.10;;;;;;;10.18;100.00;95926.44;4917054;29;20123;-76
2022/11/09 01:55:23;;;;;;;0.10;0.10;;;;;;;10.17;100.00;95927.50;4900212;29;20043;-76
2022/11/09 01:58:19;;;;;;;0.10;0.10;;;;;;;10.16;100.00;95923.22;4901626;29;20044;-75
2022/11/09 02:01:10;;;;;;;0.10;0.10;;;;;;;10.15;100.00;95912.78;4900172;29;20138;-76
2022/11/09 02:04:09;;;;;;;0.10;0.10;;;;;;;10.17;100.00;95907.97;4926880;28;20122;-76
2022/11/09 02:06:57;;;;;;;0.10;0.10;;;;;;;10.14;100.00;95916.53;4901102;29;20043;-76
2022/11/09 02:10:07;;;;;;;0.10;0.10;;;;;;;10.11;100.00;95923.16;4916093;29;20067;-75
2022/11/09 02:12:55;;;;;;;0.10;0.10;;;;;;;10.07;100.00;95906.06;4917026;29;20054;-76
2022/11/09 02:15:48;;;;;;;0.10;0.10;;;;;;;9.99;100.00;95895.84;4926614;28;20050;-76
2022/11/09 02:18:35;;;;;;;0.10;0.10;;;;;;;9.98;100.00;95875.53;4918843;29;20523;-75
2022/11/09 02:21:23;;;;;;;0.10;0.10;;;;;;;9.98;100.00;95881.69;4896911;29;21568;-76
2022/11/09 02:24:10;;;;;;;0.10;0.10;;;;;;;10.02;100.00;95911.34;4914319;29;20512;-76
2022/11/09 02:26:57;;;;;;;0.10;0.10;;;;;;;10.00;100.00;95910.81;4915366;29;20048;-75
2022/11/09 02:29:45;;;;;;;0.10;0.10;;;;;;;9.98;100.00;95907.59;4886867;29;20095;-76
2022/11/09 02:32:31;;;;;;;0.10;0.10;;;;;;;9.92;100.00;95892.59;4925617;28;20131;-76
2022/11/09 02:35:19;;;;;;;0.20;0.20;;;;;;;9.93;100.00;95910.22;4926289;28;20047;-75
2022/11/09 02:38:10;;;;;;;0.10;0.10;;;;;;;9.93;100.00;95910.22;4928628;28;20048;-75
2022/11/09 02:40:56;;;;;;;0.13;0.13;;;;;;;9.97;100.00;95906.81;4896298;29;20044;-76
2022/11/09 02:43:42;;;;;;;0.15;0.15;;;;;;;9.93;100.00;95899.53;4926354;28;20188;-77
2022/11/09 02:46:34;;;;;;;0.10;0.10;;;;;;;9.91;100.00;95891.78;4904968;29;20035;-77
2022/11/09 02:49:20;;;;;;;0.10;0.10;;;;;;;9.87;100.00;95888.00;4898126;29;20043;-77
2022/11/09 02:52:06;;;;;;;0.10;0.10;;;;;;;9.91;100.00;95897.13;4915236;29;20047;-77
2022/11/09 02:54:52;;;;;;;0.10;0.10;;;;;;;9.88;100.00;95891.47;4915669;29;20709;-77
2022/11/09 02:57:39;;;;;;;0.10;0.10;;;;;;;9.83;100.00;95881.59;4930199;28;20198;-77
2022/11/09 03:00:25;;;;;;;0.10;0.10;;;;;;;9.86;100.00;95885.59;4897720;29;20768;-77
2022/11/09 03:03:11;;;;;;;0.10;0.10;;;;;;;9.84;100.00;95893.06;4925957;28;20048;-77
2022/11/09 03:05:57;;;;;;;0.10;0.10;;;;;;;9.88;100.00;95891.47;4900285;29;20048;-76
2022/11/09 03:08:43;;;;;;;0.10;0.10;;;;;;;9.88;100.00;95896.81;4913203;29;20063;-76
2022/11/09 03:11:29;;;;;;;0.13;0.13;;;;;;;9.84;100.00;95883.19;4914637;29;20039;-75
2022/11/09 03:14:17;;;;;;;0.10;0.10;;;;;;;9.93;100.00;95886.97;4924150;28;20400;-76
2022/11/09 03:17:12;;;;;;;0.20;0.20;;;;;;;9.89;100.00;95893.91;4891649;29;20047;-76
2022/11/09 03:19:59;;;;;;;0.10;0.10;;;;;;;9.83;100.00;95892.28;4914875;29;20471;-76
2022/11/09 03:22:46;;;;;;;0.10;0.10;;;;;;;9.86;100.00;95891.75;4900246;29;20075;-76
2022/11/09 03:25:32;;;;;;;0.10;0.10;;;;;;;9.83;100.00;95884.25;4916866;29;20040;-76
2022/11/09 03:28:19;;;;;;;0.10;0.10;;;;;;;9.83;100.00;95904.81;4899257;29;20039;-76
2022/11/09 03:31:06;;;;;;;0.10;0.10;;;;;;;9.86;100.00;95906.97;4887179;29;20055;-76
2022/11/09 03:33:52;;;;;;;0.10;0.10;;;;;;;9.81;100.00;95901.63;4898090;29;20036;-76
2022/11/09 03:36:38;;;;;;;0.05;0.05;;;;;;;9.90;100.00;95910.75;4901939;29;20055;-76
2022/11/09 03:39:24;;;;;;;0.10;0.10;;;;;;;9.95;100.00;95919.59;4926236;28;20118;-76
2022/11/09 03:42:10;;;;;;;0.10;0.10;;;;;;;9.99;100.00;95909.22;4924548;28;20307;-76
2022/11/09 03:44:57;;;;;;;0.10;0.10;;;;;;;10.03;100.00;95911.09;4901282;29;20408;-76
2022/11/09 03:47:45;;;;;;;0.10;0.10;;;;;;;10.06;100.00;95912.47;4915941;29;20069;-76
2022/11/09 03:50:33;;;;;;;0.10;0.10;;;;;;;10.09;100.00;95919.16;4915360;29;20036;-76
2022/11/09 03:53:19;;;;;;;0.10;0.10;;;;;;;10.13;100.00;95925.59;4912565;29;20118;-74
2022/11/09 03:56:05;;;;;;;0.10;0.10;;;;;;;10.11;100.00;95925.03;4912992;29;20488;-76
2022/11/09 03:58:51;;;;;;;0.10;0.10;;;;;;;10.09;100.00;95919.97;4913756;29;20487;-76
2022/11/09 04:01:37;;;;;;;0.10;0.10;;;;;;;10.11;100.00;95931.19;4916263;29;20063;-76
2022/11/09 04:04:23;;;;;;;0.17;0.17;;;;;;;10.08;100.00;95921.03;4912884;29;20602;-76
2022/11/09 04:07:10;;;;;;;0.10;0.10;;;;;;;10.02;100.00;95919.38;4911899;29;20071;-76
2022/11/09 04:09:56;;;;;;;0.10;0.10;;;;;;;9.98;100.00;95923.63;4912918;29;20044;-75
2022/11/09 04:12:41;;;;;;;0.10;0.10;;;;;;;9.88;100.00;95912.84;4901294;29;20514;-76
2022/11/09 04:15:27;;;;;;;0.10;0.10;;;;;;;9.97;100.00;95919.34;4912523;29;20051;-75
2022/11/09 04:18:15;;;;;;;0.10;0.10;;;;;;;9.96;100.00;95928.41;4913172;29;20055;-76
2022/11/09 04:21:01;;;;;;;0.10;0.10;;;;;;;9.93;100.00;95913.72;4913281;29;20930;-76
2022/11/09 04:23:48;;;;;;;0.10;0.10;;;;;;;9.96;100.00;95915.88;4925640;28;20169;-75
2022/11/09 04:26:34;;;;;;;0.10;0.10;;;;;;;9.94;100.00;95904.63;4898411;29;20044;-75
2022/11/09 04:29:20;;;;;;;0.10;0.10;;;;;;;9.83;100.00;95899.47;4898360;29;20130;-74
2022/11/09 04:32:06;;;;;;;0.10;0.10;;;;;;;9.83;100.00;95902.97;4912285;29;20726;-76
2022/11/09 04:34:52;;;;;;;0.10;0.10;;;;;;;9.86;100.00;95907.78;4915527;28;20050;-74
2022/11/09 04:37:37;;;;;;;0.10;0.10;;;;;;;9.87;100.00;95905.91;4915208;29;20171;-75
2022/11/09 04:40:26;;;;;;;0.10;0.10;;;;;;;9.82;100.00;95900.56;4912527;29;20066;-76
2022/11/09 04:43:14;;;;;;;0.10;0.10;;;;;;;9.78;100.00;95902.91;4913266;29;20051;-76
2022/11/09 04:46:01;;;;;;;0.10;0.10;;;;;;;9.80;100.00;95908.78;4913799;29;20407;-76
2022/11/09 04:48:47;;;;;;;0.10;0.10;;;;;;;9.81;100.00;95901.63;4912388;29;20087;-76
2022/11/09 04:51:33;;;;;;;0.10;0.10;;;;;;;9.81;100.00;95901.63;4917474;29;20446;-76
2022/11/09 04:54:19;;;;;;;0.17;0.17;;;;;;;9.81;100.00;95902.41;4916659;29;20039;-75
2022/11/09 04:57:05;;;;;;;0.10;0.10;;;;;;;9.87;100.00;95906.72;4917522;29;20044;-75
2022/11/09 04:59:50;;;;;;;0.10;0.10;;;;;;;9.89;100.00;95899.25;4917598;29;20569;-76
2022/11/09 05:02:36;;;;;;;0.10;0.10;;;;;;;9.92;100.00;95901.41;4917387;29;20492;-74
2022/11/09 05:05:22;;;;;;;0.10;0.10;;;;;;;9.92;100.00;95900.59;4907788;29;20142;-74
2022/11/09 05:08:08;;;;;;;0.10;0.10;;;;;;;9.91;100.00;95902.47;4917678;29;20048;-76
2022/11/09 05:10:57;;;;;;;0.10;0.10;;;;;;;9.95;100.00;95898.22;4919739;29;20508;-75
2022/11/09 05:13:43;;;;;;;0.10;0.10;;;;;;;9.94;100.00;95893.94;4918072;29;20050;-76
2022/11/09 05:16:29;;;;;;;0.10;0.10;;;;;;;9.99;100.00;95902.00;4904914;29;20491;-73
2022/11/09 05:19:15;;;;;;;0.10;0.10;;;;;;;9.94;100.00;95887.78;4916800;29;20059;-74
2022/11/09 05:23:57;;;;;;;0.10;0.10;;;;;;;10.00;100.00;95884.88;4917476;29;20199;-75
2022/11/09 05:25:07;;;;;;;0.10;0.10;;;;;;;9.99;100.00;95887.81;4916848;29;20055;-75
2022/11/09 05:27:53;;;;;;;0.10;0.10;;;;;;;9.89;100.00;95893.91;4917849;29;20508;-76
2022/11/09 05:30:39;;;;;;;0.10;0.10;;;;;;;9.88;100.00;95889.59;4929731;28;20099;-75
2022/11/09 05:33:25;;;;;;;0.10;0.10;;;;;;;9.93;100.00;95907.56;4918238;29;20040;-76
2022/11/09 05:36:11;;;;;;;0.15;0.15;;;;;;;9.94;100.00;95898.47;4915150;29;20043;-75
2022/11/09 05:38:57;;;;;;;0.10;0.10;;;;;;;9.96;100.00;95907.03;4916651;29;20055;-76
2022/11/09 05:41:43;;;;;;;0.10;0.10;;;;;;;10.01;100.00;95909.75;4919133;29;20039;-76
2022/11/09 05:44:29;;;;;;;0.10;0.10;;;;;;;9.98;100.00;95905.72;4918330;29;20521;-77
2022/11/09 05:47:15;;;;;;;0.10;0.10;;;;;;;10.05;100.00;95913.53;4917900;29;20048;-76
2022/11/09 05:50:01;;;;;;;0.20;0.20;;;;;;;10.04;100.00;95909.25;4918832;29;20048;-76
2022/11/09 05:52:46;;;;;;;0.10;0.10;;;;;;;10.03;100.00;95911.09;4930994;28;20048;-76
2022/11/09 05:55:32;;;;;;;0.10;0.10;;;;;;;10.04;100.00;95906.59;4916868;29;21426;-75
2022/11/09 05:58:18;;;;;;;0.10;0.10;;;;;;;10.05;100.00;95908.19;4916464;29;20066;-75
2022/11/09 06:01:07;;;;;;;0.10;0.10;;;;;;;10.02;100.00;95903.34;4917834;29;20062;-76
2022/11/09 06:03:53;;;;;;;0.10;0.10;;;;;;;9.98;100.00;95908.41;4915530;29;20110;-75
2022/11/09 06:06:39;;;;;;;0.10;0.10;;;;;;;9.97;100.00;95906.00;4919751;29;20305;-75
2022/11/09 06:09:25;;;;;;;0.10;0.10;;;;;;;9.99;100.00;95911.88;4916299;29;20062;-75
2022/11/09 06:12:11;;;;;;;0.10;0.10;;;;;;;10.04;100.00;95914.59;4918519;29;20134;-74
2022/11/09 06:14:56;;;;;;;0.13;0.13;;;;;;;10.05;100.00;95917.00;4918310;29;20797;-76
2022/11/09 06:17:42;;;;;;;0.10;0.10;;;;;;;10.10;100.00;95915.41;4915982;29;20056;-76
2022/11/09 06:20:28;;;;;;;0.10;0.10;;;;;;;10.11;100.00;95922.38;4903587;29;20051;-75
2022/11/09 06:23:14;;;;;;;0.13;0.13;;;;;;;10.14;100.00;95920.00;4915647;29;20044;-74
2022/11/09 06:26:09;;;;;;;0.10;0.10;;;;;;;10.13;100.00;95922.94;4917227;29;20043;-76
2022/11/09 06:28:56;;;;;;;0.20;0.20;;;;;;;10.15;100.00;95918.94;4928775;28;20143;-76
2022/11/09 06:31:42;;;;;;;0.10;0.10;;;;;;;10.19;100.00;95929.91;4918312;29;20083;-76
2022/11/09 06:34:29;;;;;;;0.20;0.20;;;;;;;10.25;100.00;95942.28;4915419;29;20305;-75
2022/11/09 06:37:16;;;;;;;0.10;0.10;;;;;;;10.22;100.00;95937.41;4916629;29;20618;-74
2022/11/09 06:40:03;;;;;;;0.20;0.20;;;;;;;10.27;100.00;95940.13;4918255;29;20250;-76
2022/11/09 06:42:49;;;;;;;0.10;0.10;;;;;;;10.23;100.00;95944.41;4915970;29;20052;-75
2022/11/09 06:45:34;;;;;;;0.10;0.10;;;;;;;10.22;100.00;95943.59;4903719;29;20118;-76
2022/11/09 06:48:21;;;;;;;0.10;0.10;;;;;;;10.30;100.00;95948.47;4916107;29;20048;-75
2022/11/09 06:51:07;;;;;;;0.10;0.10;;;;;;;10.29;100.00;95938.84;4916737;29;20055;-76
2022/11/09 06:53:53;;;;;;;0.10;0.10;;;;;;;10.35;100.00;95963.75;4915037;29;20051;-76
2022/11/09 06:56:38;;;;;;;0.10;0.10;;;;;;;10.35;100.00;95941.53;4903364;29;20475;-75
2022/11/09 06:59:24;;;;;;;0.10;0.10;;;;;;;10.34;100.00;95954.09;4915424;29;20044;-76
2022/11/09 07:02:16;;;;;;;0.10;0.10;;;;;;;10.42;100.00;95950.13;4926735;28;20488;-75
2022/11/09 07:05:02;;;;;;;0.10;0.10;;;;;;;10.38;100.00;95965.09;4917499;29;20051;-76
2022/11/09 07:07:48;;;;;;;0.10;0.10;;;;;;;10.32;100.00;95949.00;4917351;29;20111;-76
2022/11/09 07:10:34;;;;;;;0.15;0.15;;;;;;;10.29;100.00;95962.91;4903817;29;20044;-75
2022/11/09 07:13:19;;;;;;;0.10;0.10;;;;;;;10.33;100.00;95966.66;4916290;29;20269;-75
2022/11/09 07:16:06;;;;;;;0.20;0.20;;;;;;;10.30;100.00;95969.84;4917861;29;20352;-76
2022/11/09 07:18:52;;;;;;;0.10;0.10;;;;;;;10.28;100.00;95955.94;4902924;29;20075;-77
2022/11/09 07:21:37;;;;;;;0.10;0.10;;;;;;;10.28;100.00;95963.97;4921183;29;20062;-75
2022/11/09 07:24:23;;;;;;;0.10;0.10;;;;;;;10.27;100.00;95970.38;4916457;29;20051;-76
2022/11/09 07:27:09;;;;;;;0.10;0.10;;;;;;;10.31;100.00;95974.13;4917157;29;20050;-77
2022/11/09 07:29:55;;;;;;;0.10;0.10;;;;;;;10.26;100.00;95970.63;4917765;29;20091;-77
2022/11/09 07:32:41;;;;;;;0.10;0.10;;;;;;;10.30;100.00;95974.41;4917129;29;20054;-76
2022/11/09 07:35:27;;;;;;;0.10;0.10;;;;;;;10.31;100.00;95976.81;4916440;29;20052;-76
2022/11/09 07:38:14;;;;;;;0.10;0.10;;;;;;;10.37;100.00;95972.31;4918265;29;20083;-74
2022/11/09 07:41:01;;;;;;;0.20;0.20;;;;;;;10.29;100.00;95978.16;4904691;29;20040;-76
2022/11/09 07:43:47;;;;;;;0.10;0.10;;;;;;;10.29;100.00;95981.63;4915180;29;20047;-77
2022/11/09 07:46:34;;;;;;;0.10;0.10;;;;;;;10.29;100.00;95967.44;4919265;29;20527;-75
2022/11/09 07:49:20;;;;;;;0.10;0.10;;;;;;;10.38;100.00;95973.91;4916423;29;20138;-74
2022/11/09 07:52:06;;;;;;;0.10;0.10;;;;;;;10.32;100.00;95974.94;4915376;29;20351;-75
2022/11/09 07:54:52;;;;;;;0.17;0.17;;;;;;;10.48;100.00;95978.50;4916864;29;20511;-77
2022/11/09 07:57:38;;;;;;;0.10;0.10;;;;;;;10.56;100.00;96002.09;4919561;29;20052;-77
2022/11/09 08:00:25;;;;;;;0.10;0.10;;;;;;;10.57;100.00;95988.47;4929612;28;20075;-74
2022/11/09 08:03:11;;;;;;;0.10;0.10;;;;;;;10.65;100.00;95989.03;4916801;29;20051;-75
2022/11/09 08:05:57;;;;;;;0.10;0.10;;;;;;;10.70;100.00;95986.38;4919705;29;21050;-73
2022/11/09 08:08:43;;;;;;;0.10;0.10;;;;;;;10.76;100.00;95985.34;4916519;29;20147;-75
2022/11/09 08:11:29;;;;;;;0.20;0.20;;;;;;;10.84;100.00;95987.53;4919412;29;20039;-74
2022/11/09 08:14:15;;;;;;;0.10;0.10;;;;;;;10.94;100.00;96000.16;4918124;29;20044;-74
2022/11/09 08:17:01;;;;;;;0.10;0.10;;;;;;;11.02;100.00;96005.81;4918614;29;20056;-74
2022/11/09 08:19:47;;;;;;;0.10;0.10;;;;;;;11.01;100.00;96016.78;4919231;29;20452;-75
2022/11/09 08:22:40;;;;;;;0.10;0.10;;;;;;;11.00;100.00;96007.94;4918146;29;20690;-73
2022/11/09 08:25:26;;;;;;;0.10;0.10;;;;;;;10.88;100.00;96002.78;4901698;29;20810;-74
2022/11/09 08:28:14;;;;;;;0.10;0.10;;;;;;;10.88;100.00;96005.47;4919511;29;20052;-75
2022/11/09 08:31:01;;;;;;;0.10;0.10;;;;;;;11.14;100.00;96000.25;4917255;29;20042;-75
2022/11/09 08:33:48;;;;;;;0.17;0.17;;;;;;;11.34;100.00;95994.13;4929259;28;20063;-75
2022/11/09 08:36:35;;;;;;;0.10;0.10;;;;;;;11.15;100.00;96004.53;4918767;29;20131;-75
2022/11/09 08:39:22;;;;;;;0.10;0.10;;;;;;;11.13;100.00;95999.44;4919006;29;20305;-77
2022/11/09 08:42:08;;;;;;;0.10;0.10;;;;;;;11.27;100.00;96010.44;4918519;29;20130;-76
2022/11/09 08:44:54;;;;;;;0.10;0.10;;;;;;;11.41;100.00;96008.88;4904733;29;20124;-77
2022/11/09 08:47:40;;;;;;;0.20;0.20;;;;;;;11.37;100.00;96007.00;4917057;29;20140;-76
2022/11/09 08:50:27;;;;;;;0.10;0.10;;;;;;;11.36;100.00;96006.19;4917028;29;20051;-76
2022/11/09 08:53:13;;;;;;;0.20;0.20;;;;;;;11.49;100.00;96004.06;4915640;29;20112;-77
2022/11/09 08:55:59;;;;;;;0.10;0.10;;;;;;;11.57;100.00;96012.38;4917056;29;20403;-76
2022/11/09 08:58:45;;;;;;;0.10;0.10;;;;;;;11.61;100.00;96015.38;4914779;29;20055;-76
2022/11/09 09:01:31;;;;;;;0.10;0.10;;;;;;;11.70;100.00;96008.41;4918279;29;20051;-76
2022/11/09 09:04:17;;;;;;;0.10;0.10;;;;;;;11.94;100.00;96025.63;4918020;29;20352;-76
2022/11/09 09:07:02;;;;;;;0.10;0.10;;;;;;;12.12;100.00;96010.84;4920134;29;20055;-76
2022/11/09 09:09:48;;;;;;;0.20;0.20;;;;;;;12.17;100.00;96020.78;4916216;29;20063;-76
2022/11/09 09:12:34;;;;;;;0.10;0.10;;;;;;;12.36;100.00;96008.44;4916490;29;20164;-76
2022/11/09 09:15:21;;;;;;;0.10;0.10;;;;;;;12.10;100.00;96007.66;4917583;29;20355;-76
2022/11/09 09:18:07;;;;;;;0.10;0.10;;;;;;;12.15;100.00;96021.06;4885519;28;20055;-76
2022/11/09 09:20:52;;;;;;;0.10;0.10;;;;;;;12.45;100.00;96025.63;4917277;29;20062;-77
2022/11/09 09:23:38;;;;;;;0.10;0.10;;;;;;;12.21;100.00;96009.25;4914905;29;20044;-76
2022/11/09 09:26:24;;;;;;;0.10;0.10;;;;;;;13.38;100.00;96011.66;4915536;29;20524;-77
2022/11/09 09:29:12;;;;;;;0.10;0.10;;;;;;;13.20;100.00;96003.41;4917732;29;20082;-77
2022/11/09 09:31:58;;;;;;;0.10;0.10;;;;;;;14.22;100.00;96004.34;4917864;29;20047;-77
2022/11/09 09:34:44;;;;;;;0.20;0.20;;;;;;;15.03;100.00;96024.31;4918889;29;20067;-78
2022/11/09 09:37:30;;;;;;;0.20;0.20;;;;;;;15.64;100.00;96022.78;4903799;29;20044;-79
2022/11/09 09:40:28;;;;;;;0.20;0.20;;;;;;;17.06;100.00;96014.22;4919317;29;20130;-77
2022/11/09 09:43:22;;;;;;;0.30;0.30;;;;;;;18.68;100.00;96019.84;4921733;29;20679;-78
2022/11/09 09:46:21;;;;;;;0.10;0.10;;;;;;;17.59;100.00;96026.38;4922030;29;20555;-77
2022/11/09 09:49:19;;;;;;;0.20;0.20;;;;;;;17.55;100.00;96018.88;4931802;28;20046;-78
2022/11/09 09:52:16;;;;;;;0.20;0.20;;;;;;;17.49;100.00;96013.88;4921145;29;20134;-78
2022/11/09 09:55:13;;;;;;;0.13;0.13;;;;;;;16.89;100.00;96019.44;4919823;29;20043;-77
2022/11/09 09:58:11;;;;;;;0.10;0.10;;;;;;;17.42;100.00;96016.19;4921219;29;20090;-77
2022/11/09 10:01:19;;;;;;;0.25;0.22;;;;;;;17.98;100.00;96026.66;4913018;29;20087;-78
2022/11/09 10:04:18;;;;;;;0.20;0.20;;;;;;;17.67;100.00;96017.59;4919977;29;20043;-76
2022/11/09 10:07:33;;;;;;;0.10;0.10;;;;;;;16.16;100.00;96035.19;4921703;29;20054;-78
2022/11/09 10:10:31;;;;;;;0.10;0.10;;;;;;;16.81;100.00;96033.59;4920494;29;20115;-77
2022/11/09 10:14:01;;;;;;;0.20;0.20;;;;;;;17.02;100.00;96036.75;4920265;29;20091;-77
2022/11/09 10:17:03;;;;;;;0.10;0.10;;;;;;;17.01;100.00;96038.63;4919064;29;20149;-78
2022/11/09 10:19:56;;;;;;;0.10;0.10;;;;;;;16.13;100.00;96035.81;4919138;29;20131;-78
2022/11/09 10:23:16;;;;;;;0.10;0.10;;;;;;;15.16;100.00;96040.84;4919659;29;20126;-78
2022/11/09 10:26:09;;;;;;;0.20;0.20;;;;;;;17.07;100.00;96034.75;4918520;29;20075;-78
2022/11/09 10:29:00;;;;;;;0.20;0.20;;;;;;;17.50;100.00;96037.91;4899973;29;20491;-78
2022/11/09 10:31:49;;;;;;;0.10;0.10;;;;;;;16.10;100.00;96046.38;4922311;29;20534;-78
2022/11/09 10:34:42;;;;;;;0.10;0.10;;;;;;;15.78;100.00;96045.22;4923255;29;20050;-79
2022/11/09 10:37:37;;;;;;;0.13;0.13;;;;;;;16.77;100.00;96030.72;4921500;29;20644;-78
2022/11/09 10:40:37;;;;;;;0.20;0.20;;;;;;;18.98;95.57;95991.09;4920555;29;20039;-79
2022/11/09 10:43:41;;;;;;;0.10;0.10;;;;;;;18.74;97.17;96029.41;4918703;29;20047;-78
2022/11/09 10:47:04;;;;;;;0.20;0.20;;;;;;;18.12;95.24;96036.59;4920092;29;20035;-78
2022/11/09 10:50:23;;;;;;;0.10;0.10;;;;;;;18.74;92.48;96036.75;4920463;29;20122;-77
2022/11/09 10:53:33;;;;;;;0.10;0.10;;;;;;;20.41;82.82;96035.75;4921178;29;20478;-77
2022/11/09 10:56:46;;;;;;;0.20;0.20;;;;;;;19.22;82.91;96025.94;4920600;29;20044;-77
2022/11/09 10:59:55;;;;;;;0.10;0.10;;;;;;;17.67;92.41;96044.63;4919481;29;20044;-77
2022/11/09 11:03:16;;;;;;;0.10;0.10;;;;;;;18.91;89.13;96040.38;4919190;29;20036;-77
2022/11/09 11:06:22;;;;;;;0.10;0.10;;;;;;;17.87;92.80;96044.22;4919708;29;20063;-77
2022/11/09 11:09:27;;;;;;;0.10;0.10;;;;;;;18.65;88.79;96047.50;4919642;29;20047;-78
2022/11/09 11:12:31;;;;;;;0.20;0.20;;;;;;;17.55;98.00;96043.22;4922104;29;20032;-78
2022/11/09 11:15:41;;;;;;;0.20;0.20;;;;;;;18.69;93.07;96034.19;4919559;29;20087;-77
2022/11/09 11:18:46;;;;;;;0.20;0.20;;;;;;;18.36;93.85;96051.47;4919103;29;20522;-78
2022/11/09 11:22:09;;;;;;;0.10;0.10;;;;;;;20.34;81.90;96055.25;4920715;29;20101;-77
2022/11/09 11:25:20;;;;;;;0.10;0.10;;;;;;;19.27;86.80;96060.28;4911573;29;20051;-77
2022/11/09 11:28:52;;;;;;;0.10;0.10;;;;;;;18.25;91.33;96050.09;4922071;29;20710;-77
2022/11/09 11:31:56;;;;;;;0.10;0.10;;;;;;;17.80;93.22;96066.25;4919612;29;20043;-78
2022/11/09 11:35:12;;;;;;;0.10;0.10;;;;;;;16.25;100.00;96070.44;4916734;29;20036;-78
2022/11/09 11:38:26;;;;;;;0.10;0.10;;;;;;;15.70;100.00;96062.03;4545978;29;10000536;-77
2022/11/09 11:41:40;;;;;;;0.10;0.10;;;;;;;16.04;100.00;96071.84;4918521;29;20035;-77
2022/11/09 11:45:22;;;;;;;0.20;0.20;;;;;;;16.63;100.00;96064.97;4916094;29;20693;-79
2022/11/09 11:48:32;;;;;;;0.10;0.10;;;;;;;15.43;100.00;96073.44;4918088;29;20054;-78
2022/11/09 11:51:47;;;;;;;0.10;0.10;;;;;;;15.44;100.00;96066.13;4916616;29;20059;-78
2022/11/09 11:55:07;;;;;;;0.10;0.10;;;;;;;15.25;100.00;96079.56;4915902;29;20042;-78
2022/11/09 11:58:27;;;;;;;0.10;0.10;;;;;;;14.39;100.00;96079.28;4919095;29;20036;-78
2022/11/09 12:01:54;;;;;;;0.15;0.15;;;;;;;14.77;100.00;96076.81;4917814;29;20130;-78
2022/11/09 12:05:17;;;;;;;0.10;0.10;;;;;;;14.73;100.00;96075.81;4915182;29;20044;-77
2022/11/09 12:08:34;;;;;;;0.20;0.20;;;;;;;14.73;100.00;96082.00;4919071;29;20146;-78
2022/11/09 12:11:53;;;;;;;0.20;0.20;;;;;;;13.87;100.00;96071.88;4918451;29;20047;-78
2022/11/09 12:15:04;;;;;;;0.20;0.20;;;;;;;14.46;100.00;96069.03;4913747;29;20522;-77
2022/11/09 12:19:00;;;;;;;0.10;0.10;;;;;;;14.51;100.00;96068.19;4909757;29;20605;-78
2022/11/09 12:22:16;;;;;;;0.10;0.10;;;;;;;14.38;100.00;96074.97;4909845;29;20043;-77
2022/11/09 12:25:28;;;;;;;0.20;0.20;;;;;;;14.09;100.00;96063.38;4916502;29;20032;-78
2022/11/09 12:28:54;;;;;;;0.10;0.10;;;;;;;12.98;100.00;96071.66;4915812;29;20044;-78
2022/11/09 12:32:09;;;;;;;0.10;0.10;;;;;;;13.45;100.00;96061.59;4913366;29;20692;-77
2022/11/09 12:35:20;;;;;;;0.10;0.10;;;;;;;13.75;100.00;96063.31;4914519;29;20047;-77
2022/11/09 12:38:57;;;;;;;0.20;0.20;;;;;;;13.66;100.00;96055.03;4890175;28;20598;-78
2022/11/09 12:42:12;;;;;;;0.17;0.17;;;;;;;13.61;100.00;96068.50;4917329;29;20149;-78
2022/11/09 12:45:16;;;;;;;0.10;0.10;;;;;;;13.01;100.00;96073.00;4914661;29;20479;-77
2022/11/09 12:48:29;;;;;;;0.10;0.10;;;;;;;12.90;100.00;96069.53;4914057;29;20036;-78
2022/11/09 12:51:35;;;;;;;0.10;0.10;;;;;;;12.96;100.00;96081.88;4916900;29;20131;-77
2022/11/09 12:54:44;;;;;;;0.20;0.20;;;;;;;12.81;100.00;96085.41;4913375;29;20036;-77
2022/11/09 12:57:49;;;;;;;0.10;0.10;;;;;;;12.96;100.00;96079.19;4914562;29;20114;-77
2022/11/09 13:00:56;;;;;;;0.10;0.10;;;;;;;12.61;100.00;96095.38;4914443;29;20440;-76
2022/11/09 13:04:02;;;;;;;0.10;0.10;;;;;;;12.57;100.00;96081.66;4913478;29;20040;-77
2022/11/09 13:07:13;;;;;;;0.10;0.10;;;;;;;12.70;100.00;96085.69;4920463;29;20048;-77
2022/11/09 13:10:29;;;;;;;0.10;0.10;;;;;;;12.76;100.00;96088.09;4917362;29;20047;-77
2022/11/09 13:13:33;;;;;;;0.10;0.10;;;;;;;12.54;100.00;96087.59;4920185;29;20068;-77
2022/11/09 13:16:38;;;;;;;0.10;0.10;;;;;;;12.67;100.00;96087.03;4921331;29;20143;-78
2022/11/09 13:19:42;;;;;;;0.20;0.20;;;;;;;12.44;100.00;96091.06;4919007;29;20541;-77
2022/11/09 13:22:46;;;;;;;0.10;0.10;;;;;;;12.33;100.00;96085.97;4919036;29;20526;-77
2022/11/09 13:25:51;;;;;;;0.00;0.00;;;;;;;12.46;100.00;96096.97;4915113;29;20046;-77